Time;durP1;ratioP1;P1;durP2;ratioP2;P2;SDS_P1;SDS_P2;PMS_P1;PMS_P2;Temp;Humidity;BMP_temperature;BMP_pressure;BME280_temperature;BME280_humidity;BME280_pressure;Samples;Min_cycle;Max_cycle;Signal;HPM_P1;HPM_P2
2021/01/20 00:02:11;;;;;;;2.75;0.52;;;;;;;;;;4991133;28;20609;-55
2021/01/20 00:04:36;;;;;;;5.07;0.63;;;;;;;;;;4989201;28;27091;-54
2021/01/20 00:07:02;;;;;;;4.15;0.60;;;;;;;;;;4990111;28;20116;-57
2021/01/20 00:09:28;;;;;;;3.05;0.70;;;;;;;;;;4989874;28;20502;-56
2021/01/20 00:11:54;;;;;;;2.60;0.57;;;;;;;;;;4991846;28;20037;-55
2021/01/20 00:14:20;;;;;;;2.70;0.65;;;;;;;;;;4989630;28;20414;-57
2021/01/20 00:16:46;;;;;;;7.95;0.93;;;;;;;;;;4989864;28;20509;-57
2021/01/20 00:19:12;;;;;;;4.88;0.70;;;;;;;;;;4991041;28;20076;-56
2021/01/20 00:21:39;;;;;;;6.32;1.08;;;;;;;;;;4994861;28;20045;-58
2021/01/20 00:24:05;;;;;;;3.88;0.75;;;;;;;;;;4994374;28;20057;-57
2021/01/20 00:26:31;;;;;;;5.55;0.73;;;;;;;;;;4994201;28;20490;-57
2021/01/20 00:28:57;;;;;;;3.55;0.82;;;;;;;;;;4979610;28;20057;-56
2021/01/20 00:31:23;;;;;;;5.50;0.70;;;;;;;;;;4993160;28;20400;-58
2021/01/20 00:33:49;;;;;;;4.38;0.70;;;;;;;;;;4994660;28;20551;-57
2021/01/20 00:36:15;;;;;;;3.47;0.80;;;;;;;;;;4994572;28;20422;-58
2021/01/20 00:38:41;;;;;;;6.80;0.70;;;;;;;;;;4995618;28;21071;-57
2021/01/20 00:41:06;;;;;;;3.88;0.70;;;;;;;;;;4994348;28;20936;-55
2021/01/20 00:43:32;;;;;;;6.00;0.60;;;;;;;;;;4993886;28;20053;-58
2021/01/20 00:45:58;;;;;;;5.05;0.90;;;;;;;;;;4994119;28;20064;-58
2021/01/20 00:48:24;;;;;;;1.27;0.45;;;;;;;;;;4995167;28;20048;-57
2021/01/20 00:50:54;;;;;;;3.92;0.60;;;;;;;;;;4995339;28;20123;-55
2021/01/20 00:53:20;;;;;;;2.60;0.40;;;;;;;;;;4993621;28;20072;-58
2021/01/20 00:55:46;;;;;;;2.33;0.60;;;;;;;;;;4996138;28;20134;-57
2021/01/20 00:58:12;;;;;;;6.90;0.77;;;;;;;;;;4994547;28;20038;-58
2021/01/20 01:00:37;;;;;;;3.80;0.70;;;;;;;;;;4994528;28;20126;-58
2021/01/20 01:03:03;;;;;;;3.70;0.60;;;;;;;;;;4992587;28;20563;-58
2021/01/20 01:05:29;;;;;;;5.22;0.80;;;;;;;;;;4993597;28;20629;-57
2021/01/20 01:07:55;;;;;;;2.95;0.88;;;;;;;;;;4995955;28;20176;-56
2021/01/20 01:10:21;;;;;;;4.05;0.70;;;;;;;;;;4994824;28;20515;-58
2021/01/20 01:12:47;;;;;;;3.53;0.57;;;;;;;;;;4992836;28;20410;-56
2021/01/20 01:15:13;;;;;;;6.22;0.70;;;;;;;;;;4993727;28;20125;-56
2021/01/20 01:17:39;;;;;;;5.68;0.63;;;;;;;;;;4995831;28;20061;-58
2021/01/20 01:20:05;;;;;;;1.65;0.50;;;;;;;;;;4995425;28;20045;-57
2021/01/20 01:22:31;;;;;;;3.38;0.60;;;;;;;;;;4994013;28;20034;-56
2021/01/20 01:24:56;;;;;;;2.28;0.50;;;;;;;;;;4996294;28;20066;-57
2021/01/20 01:27:22;;;;;;;2.60;0.47;;;;;;;;;;4995645;28;20034;-55
2021/01/20 01:29:48;;;;;;;3.08;0.65;;;;;;;;;;4995270;28;20049;-56
2021/01/20 01:32:14;;;;;;;4.30;0.55;;;;;;;;;;4980615;28;20114;-56
2021/01/20 01:34:40;;;;;;;1.95;0.50;;;;;;;;;;4993899;28;20042;-55
2021/01/20 01:37:07;;;;;;;8.43;0.60;;;;;;;;;;4996214;28;20673;-57
2021/01/20 01:39:34;;;;;;;5.00;0.57;;;;;;;;;;4993787;28;20038;-56
2021/01/20 01:42:01;;;;;;;1.85;0.68;;;;;;;;;;4981246;28;20061;-56
2021/01/20 01:44:27;;;;;;;3.50;0.65;;;;;;;;;;4994498;28;20054;-57
2021/01/20 01:46:53;;;;;;;3.25;0.50;;;;;;;;;;4988917;28;20121;-56
2021/01/20 01:49:19;;;;;;;3.80;0.50;;;;;;;;;;4994931;28;20046;-56
2021/01/20 01:51:44;;;;;;;2.10;0.43;;;;;;;;;;4993572;28;20184;-57
2021/01/20 01:54:11;;;;;;;2.08;0.50;;;;;;;;;;4991799;28;20092;-56
2021/01/20 01:56:37;;;;;;;2.72;0.50;;;;;;;;;;4993968;28;20223;-56
2021/01/20 01:59:03;;;;;;;1.77;0.50;;;;;;;;;;4991715;28;20543;-56
2021/01/20 02:01:29;;;;;;;1.65;0.50;;;;;;;;;;4991794;28;20072;-55
2021/01/20 02:03:55;;;;;;;3.67;0.40;;;;;;;;;;4989605;28;20052;-57
2021/01/20 02:06:20;;;;;;;0.80;0.40;;;;;;;;;;4991358;28;20034;-58
2021/01/20 02:08:47;;;;;;;2.00;0.40;;;;;;;;;;4994258;28;21002;-57
2021/01/20 02:11:31;;;;;;;2.13;0.40;;;;;;;;;;4993141;28;20050;-57
2021/01/20 02:14:00;;;;;;;1.35;0.40;;;;;;;;;;4992256;28;20061;-56
2021/01/20 02:16:26;;;;;;;1.35;0.50;;;;;;;;;;4992499;28;20065;-57
2021/01/20 02:18:53;;;;;;;3.15;0.55;;;;;;;;;;4991608;28;20121;-58
2021/01/20 02:21:34;;;;;;;4.82;0.60;;;;;;;;;;4993432;28;20044;-56
2021/01/20 02:24:01;;;;;;;3.92;0.70;;;;;;;;;;4991642;28;20048;-57
2021/01/20 02:26:48;;;;;;;5.63;0.60;;;;;;;;;;4990624;28;20094;-55
2021/01/20 02:29:32;;;;;;;2.90;0.50;;;;;;;;;;4990922;28;20408;-57
2021/01/20 02:32:00;;;;;;;2.25;0.50;;;;;;;;;;4988744;28;20057;-56
2021/01/20 02:34:26;;;;;;;2.58;0.50;;;;;;;;;;4990507;28;20133;-57
2021/01/20 02:36:53;;;;;;;2.20;0.70;;;;;;;;;;4993184;28;20046;-54
2021/01/20 02:39:19;;;;;;;3.00;0.50;;;;;;;;;;4989971;28;20056;-56
2021/01/20 02:41:45;;;;;;;1.88;0.50;;;;;;;;;;4994483;28;20649;-57
2021/01/20 02:44:11;;;;;;;2.45;0.52;;;;;;;;;;4990227;28;20077;-56
2021/01/20 02:46:38;;;;;;;3.10;0.60;;;;;;;;;;4990201;28;20423;-56
2021/01/20 02:49:04;;;;;;;2.33;0.63;;;;;;;;;;4992166;28;20037;-57
2021/01/20 02:51:42;;;;;;;3.45;0.70;;;;;;;;;;4989991;28;20590;-57
2021/01/20 02:54:10;;;;;;;2.53;0.68;;;;;;;;;;4990494;28;20117;-56
2021/01/20 02:56:36;;;;;;;1.63;0.65;;;;;;;;;;4989037;28;20053;-56
2021/01/20 02:59:03;;;;;;;3.90;0.88;;;;;;;;;;4991417;28;20043;-56
2021/01/20 03:01:33;;;;;;;1.50;0.50;;;;;;;;;;4991231;28;20057;-57
2021/01/20 03:04:02;;;;;;;2.88;0.60;;;;;;;;;;4990286;28;20042;-56
2021/01/20 03:06:30;;;;;;;1.83;0.60;;;;;;;;;;4989987;28;20054;-54
2021/01/20 03:08:56;;;;;;;2.15;0.60;;;;;;;;;;4991392;28;20030;-57
2021/01/20 03:11:22;;;;;;;2.35;0.70;;;;;;;;;;4989549;28;20314;-57
2021/01/20 03:13:48;;;;;;;2.05;0.60;;;;;;;;;;4990909;28;20056;-57
2021/01/20 03:16:18;;;;;;;1.92;0.82;;;;;;;;;;4989755;28;20163;-54
2021/01/20 03:18:44;;;;;;;1.45;0.40;;;;;;;;;;4989985;28;20042;-57
2021/01/20 03:21:09;;;;;;;2.20;0.50;;;;;;;;;;4991613;28;20533;-57
2021/01/20 03:23:35;;;;;;;0.85;0.35;;;;;;;;;;4988768;28;20072;-57
2021/01/20 03:26:01;;;;;;;2.15;0.47;;;;;;;;;;4990650;28;20526;-57
2021/01/20 03:28:27;;;;;;;2.83;0.57;;;;;;;;;;4991257;28;20046;-57
2021/01/20 03:30:53;;;;;;;1.55;0.50;;;;;;;;;;4990349;28;21369;-57
2021/01/20 03:33:19;;;;;;;1.90;0.50;;;;;;;;;;4990381;28;20042;-56
2021/01/20 03:35:45;;;;;;;2.78;0.88;;;;;;;;;;4991534;28;20125;-57
2021/01/20 03:38:11;;;;;;;1.27;0.55;;;;;;;;;;4990877;28;20514;-57
2021/01/20 03:40:37;;;;;;;2.28;0.60;;;;;;;;;;4990873;28;20045;-56
2021/01/20 03:43:03;;;;;;;2.53;0.50;;;;;;;;;;4990186;28;20490;-56
2021/01/20 03:45:29;;;;;;;2.65;0.40;;;;;;;;;;4988891;28;20045;-53
2021/01/20 03:47:55;;;;;;;2.10;0.52;;;;;;;;;;4991959;28;20574;-57
2021/01/20 03:50:20;;;;;;;3.28;0.60;;;;;;;;;;4991377;28;20030;-57
2021/01/20 03:52:46;;;;;;;2.40;0.60;;;;;;;;;;4990341;28;20041;-57
2021/01/20 03:55:12;;;;;;;1.42;0.43;;;;;;;;;;4992386;28;20049;-56
2021/01/20 03:57:38;;;;;;;3.13;0.40;;;;;;;;;;4993520;28;20038;-55
2021/01/20 04:00:05;;;;;;;2.10;0.50;;;;;;;;;;4995051;28;20057;-57
2021/01/20 04:02:31;;;;;;;2.80;0.55;;;;;;;;;;4992971;28;20462;-57
2021/01/20 04:04:56;;;;;;;1.55;0.40;;;;;;;;;;4992423;28;20050;-54
2021/01/20 04:07:22;;;;;;;2.70;0.60;;;;;;;;;;4994173;28;20117;-57
2021/01/20 04:09:48;;;;;;;1.45;0.50;;;;;;;;;;4992610;28;20387;-54
2021/01/20 04:12:14;;;;;;;2.30;0.50;;;;;;;;;;4995007;28;20118;-56
2021/01/20 04:14:40;;;;;;;2.47;0.40;;;;;;;;;;4993397;28;20042;-57
2021/01/20 04:17:06;;;;;;;1.05;0.45;;;;;;;;;;4994574;28;20062;-56
2021/01/20 04:19:32;;;;;;;2.20;0.60;;;;;;;;;;4986835;28;20330;-55
2021/01/20 04:21:58;;;;;;;3.22;0.50;;;;;;;;;;4993900;28;20042;-56
2021/01/20 04:24:23;;;;;;;1.58;0.50;;;;;;;;;;4995037;28;20054;-53
2021/01/20 04:26:49;;;;;;;3.42;0.57;;;;;;;;;;4993809;28;20037;-56
2021/01/20 04:29:18;;;;;;;3.20;0.50;;;;;;;;;;4994498;28;20097;-56
2021/01/20 04:31:44;;;;;;;1.42;0.50;;;;;;;;;;4993754;28;20045;-57
2021/01/20 04:34:10;;;;;;;9.75;0.68;;;;;;;;;;4993741;28;20407;-55
2021/01/20 04:36:36;;;;;;;4.75;0.60;;;;;;;;;;4993464;28;20438;-56
2021/01/20 04:39:05;;;;;;;4.85;0.70;;;;;;;;;;4970721;28;20043;-56
2021/01/20 04:41:32;;;;;;;2.03;0.50;;;;;;;;;;4993691;28;20058;-55
2021/01/20 04:43:58;;;;;;;1.52;0.50;;;;;;;;;;4994845;28;20045;-56
2021/01/20 04:46:24;;;;;;;2.78;0.45;;;;;;;;;;4993539;28;22928;-56
2021/01/20 04:48:54;;;;;;;2.47;0.50;;;;;;;;;;4993817;28;20070;-56
2021/01/20 04:51:23;;;;;;;2.42;0.50;;;;;;;;;;4992077;28;20038;-56
2021/01/20 04:53:50;;;;;;;1.73;0.50;;;;;;;;;;4992526;28;20109;-57
2021/01/20 04:56:16;;;;;;;1.50;0.50;;;;;;;;;;4995753;28;20034;-56
2021/01/20 04:58:42;;;;;;;2.08;0.77;;;;;;;;;;4978360;28;20049;-57
2021/01/20 05:01:08;;;;;;;1.95;0.47;;;;;;;;;;4993950;28;20042;-56
2021/01/20 05:03:34;;;;;;;2.55;0.52;;;;;;;;;;4993349;28;20038;-57
2021/01/20 05:06:00;;;;;;;4.53;0.70;;;;;;;;;;4993336;28;20092;-57
2021/01/20 05:08:26;;;;;;;1.35;0.45;;;;;;;;;;4992576;28;20037;-56
2021/01/20 05:10:52;;;;;;;5.35;0.55;;;;;;;;;;4992989;28;20511;-57
2021/01/20 05:13:25;;;;;;;4.38;0.60;;;;;;;;;;4992507;28;20049;-57
2021/01/20 05:15:52;;;;;;;5.07;0.63;;;;;;;;;;4993388;28;20038;-57
2021/01/20 05:18:18;;;;;;;1.25;0.40;;;;;;;;;;4991796;28;20450;-57
2021/01/20 05:20:43;;;;;;;1.98;0.50;;;;;;;;;;4992823;28;20116;-56
2021/01/20 05:23:10;;;;;;;3.40;0.60;;;;;;;;;;4993078;28;20202;-56
2021/01/20 05:25:36;;;;;;;1.50;0.77;;;;;;;;;;4993044;28;20042;-56
2021/01/20 05:28:20;;;;;;;3.17;0.50;;;;;;;;;;4993429;28;20724;-56
2021/01/20 05:30:47;;;;;;;1.90;0.50;;;;;;;;;;4993061;28;20734;-56
2021/01/20 05:33:14;;;;;;;3.20;0.50;;;;;;;;;;4993818;28;20117;-54
2021/01/20 05:35:40;;;;;;;2.33;0.50;;;;;;;;;;4993820;28;20049;-57
2021/01/20 05:38:06;;;;;;;3.25;0.52;;;;;;;;;;4993515;28;21202;-55
2021/01/20 05:40:34;;;;;;;2.47;0.50;;;;;;;;;;4992982;28;20483;-56
2021/01/20 05:43:00;;;;;;;9.00;0.70;;;;;;;;;;4972917;28;20065;-56
2021/01/20 05:45:26;;;;;;;3.25;0.60;;;;;;;;;;4990627;28;20906;-54
2021/01/20 05:48:02;;;;;;;1.83;0.50;;;;;;;;;;4991790;28;20042;-54
2021/01/20 05:50:28;;;;;;;2.00;0.50;;;;;;;;;;4990268;28;20839;-53
2021/01/20 05:53:07;;;;;;;3.30;0.50;;;;;;;;;;4993780;28;20030;-55
2021/01/20 05:55:33;;;;;;;4.38;0.50;;;;;;;;;;4992908;28;20037;-55
2021/01/20 05:58:00;;;;;;;1.52;0.50;;;;;;;;;;4985465;28;20374;-55
2021/01/20 06:00:26;;;;;;;3.97;0.60;;;;;;;;;;4991859;28;20315;-58
2021/01/20 06:02:56;;;;;;;2.63;0.45;;;;;;;;;;4991666;28;20053;-56
2021/01/20 06:05:22;;;;;;;1.83;0.50;;;;;;;;;;4991129;28;20046;-56
2021/01/20 06:07:51;;;;;;;2.17;0.50;;;;;;;;;;4991486;28;20116;-56
2021/01/20 06:10:18;;;;;;;2.83;0.65;;;;;;;;;;4990945;28;20045;-55
2021/01/20 06:12:44;;;;;;;4.35;0.50;;;;;;;;;;4992160;28;20064;-55
2021/01/20 06:15:10;;;;;;;2.13;0.57;;;;;;;;;;4990531;28;20038;-53
2021/01/20 06:17:39;;;;;;;1.23;0.40;;;;;;;;;;4991011;28;20046;-56
2021/01/20 06:20:06;;;;;;;2.65;0.50;;;;;;;;;;4992219;28;22040;-56
2021/01/20 06:22:34;;;;;;;1.80;0.50;;;;;;;;;;4992264;28;20086;-56
2021/01/20 06:25:10;;;;;;;1.58;0.50;;;;;;;;;;4991676;28;22089;-56
2021/01/20 06:27:45;;;;;;;1.48;0.45;;;;;;;;;;4992130;28;20132;-54
2021/01/20 06:30:11;;;;;;;3.20;0.50;;;;;;;;;;4993677;28;20042;-56
2021/01/20 06:32:41;;;;;;;1.50;0.50;;;;;;;;;;4991660;28;20042;-57
2021/01/20 06:35:10;;;;;;;1.88;0.55;;;;;;;;;;4989746;28;21086;-54
2021/01/20 06:37:43;;;;;;;1.48;0.40;;;;;;;;;;4991122;28;20072;-56
2021/01/20 06:40:18;;;;;;;4.07;0.60;;;;;;;;;;4992832;28;22111;-55
2021/01/20 06:42:44;;;;;;;2.10;0.50;;;;;;;;;;4990515;28;20052;-57
2021/01/20 06:45:22;;;;;;;1.13;0.40;;;;;;;;;;4990319;28;20578;-56
2021/01/20 06:47:59;;;;;;;2.40;0.50;;;;;;;;;;4992654;28;20137;-56
2021/01/20 06:50:26;;;;;;;1.50;0.63;;;;;;;;;;4991794;28;20042;-56
2021/01/20 06:53:02;;;;;;;1.45;0.40;;;;;;;;;;4975285;28;20038;-56
2021/01/20 06:55:31;;;;;;;1.05;0.40;;;;;;;;;;4991793;28;20061;-56
2021/01/20 06:58:16;;;;;;;1.92;0.50;;;;;;;;;;4992257;28;20040;-56
2021/01/20 07:00:42;;;;;;;1.85;0.45;;;;;;;;;;4992508;28;20056;-56
2021/01/20 07:03:07;;;;;;;3.05;0.40;;;;;;;;;;4991231;28;20045;-55
2021/01/20 07:05:34;;;;;;;1.58;0.40;;;;;;;;;;4974954;28;20038;-56
2021/01/20 07:08:00;;;;;;;0.95;0.40;;;;;;;;;;4993223;28;20137;-56
2021/01/20 07:10:28;;;;;;;13.02;0.60;;;;;;;;;;4991515;28;20318;-56
2021/01/20 07:13:09;;;;;;;1.23;0.40;;;;;;;;;;4991215;28;20053;-57
2021/01/20 07:15:38;;;;;;;1.30;0.47;;;;;;;;;;4992345;28;20042;-54
2021/01/20 07:18:05;;;;;;;2.90;0.30;;;;;;;;;;4991558;28;20034;-55
2021/01/20 07:20:31;;;;;;;3.60;0.68;;;;;;;;;;4990150;28;20548;-56
2021/01/20 07:22:58;;;;;;;0.70;0.30;;;;;;;;;;4992761;28;20131;-57
2021/01/20 07:25:25;;;;;;;2.03;0.40;;;;;;;;;;4991086;28;20503;-57
2021/01/20 07:27:52;;;;;;;1.25;0.40;;;;;;;;;;4990383;28;21934;-56
2021/01/20 07:30:19;;;;;;;2.83;0.52;;;;;;;;;;4993798;28;20096;-56
2021/01/20 07:32:44;;;;;;;1.05;0.40;;;;;;;;;;4981097;28;20034;-56
2021/01/20 07:35:21;;;;;;;2.70;0.50;;;;;;;;;;4994775;28;20052;-58
2021/01/20 07:37:57;;;;;;;2.15;0.40;;;;;;;;;;4975906;28;20072;-59
2021/01/20 07:40:27;;;;;;;0.77;0.30;;;;;;;;;;4993732;28;20896;-57
2021/01/20 07:42:53;;;;;;;1.40;0.43;;;;;;;;;;4995419;28;20132;-57
2021/01/20 07:45:28;;;;;;;1.10;0.43;;;;;;;;;;4997259;28;20060;-55
2021/01/20 07:47:54;;;;;;;4.22;0.50;;;;;;;;;;4996256;28;20132;-57
2021/01/20 07:50:20;;;;;;;1.38;0.30;;;;;;;;;;4995602;28;20506;-58
2021/01/20 07:52:46;;;;;;;1.95;0.50;;;;;;;;;;4994703;28;20068;-58
2021/01/20 07:55:16;;;;;;;1.35;0.50;;;;;;;;;;4995166;28;20656;-58
2021/01/20 07:57:42;;;;;;;1.85;0.50;;;;;;;;;;4995447;28;20045;-57
2021/01/20 08:00:09;;;;;;;1.80;0.43;;;;;;;;;;4994455;28;20050;-56
2021/01/20 08:02:57;;;;;;;1.20;0.40;;;;;;;;;;4994915;28;20171;-56
2021/01/20 08:05:30;;;;;;;2.10;0.45;;;;;;;;;;4995645;28;20088;-56
2021/01/20 08:07:56;;;;;;;;;;;;;;;;;;4995274;28;20038;-55
2021/01/20 08:10:21;;;;;;;1.55;0.63;;;;;;;;;;4994669;28;19988;-54
2021/01/20 08:12:51;;;;;;;2.35;0.40;;;;;;;;;;4994493;28;20061;-56
2021/01/20 08:15:17;;;;;;;2.08;0.40;;;;;;;;;;4992143;28;20073;-54
2021/01/20 08:17:46;;;;;;;0.45;0.30;;;;;;;;;;4996121;28;20038;-57
2021/01/20 08:20:12;;;;;;;0.95;0.32;;;;;;;;;;4994928;28;20052;-56
2021/01/20 08:22:48;;;;;;;2.10;0.50;;;;;;;;;;4995018;28;20045;-54
2021/01/20 08:25:21;;;;;;;2.05;0.40;;;;;;;;;;4996530;28;20125;-54
2021/01/20 08:27:47;;;;;;;1.50;0.40;;;;;;;;;;4993801;28;20042;-56
2021/01/20 08:30:13;;;;;;;1.42;0.50;;;;;;;;;;4995558;28;20441;-53
2021/01/20 08:32:55;;;;;;;2.70;0.50;;;;;;;;;;4993269;28;20037;-56
2021/01/20 08:35:31;;;;;;;0.77;0.40;;;;;;;;;;4992976;28;20153;-56
2021/01/20 08:37:57;;;;;;;4.32;0.60;;;;;;;;;;4994400;28;20695;-54
2021/01/20 08:40:23;;;;;;;1.98;0.50;;;;;;;;;;4992754;28;20042;-57
2021/01/20 08:42:49;;;;;;;1.45;0.50;;;;;;;;;;4993663;28;20049;-56
2021/01/20 08:45:16;;;;;;;1.95;0.60;;;;;;;;;;4995199;28;20074;-54
2021/01/20 08:47:57;;;;;;;3.58;0.55;;;;;;;;;;4995670;28;20141;-56
2021/01/20 08:50:29;;;;;;;1.15;0.40;;;;;;;;;;4994877;28;20049;-53
2021/01/20 08:52:56;;;;;;;1.67;0.50;;;;;;;;;;4992866;28;20053;-56
2021/01/20 08:55:26;;;;;;;1.08;0.40;;;;;;;;;;4995103;28;20106;-55
2021/01/20 08:58:10;;;;;;;1.85;0.47;;;;;;;;;;4993291;28;20038;-55
2021/01/20 09:00:40;;;;;;;0.63;0.40;;;;;;;;;;4994204;28;20105;-56
2021/01/20 09:03:12;;;;;;;2.40;0.50;;;;;;;;;;4993431;28;20112;-56
2021/01/20 09:05:38;;;;;;;1.50;0.40;;;;;;;;;;4993941;28;21909;-54
2021/01/20 09:08:04;;;;;;;1.15;0.40;;;;;;;;;;4995240;28;20038;-56
2021/01/20 09:10:30;;;;;;;2.92;0.50;;;;;;;;;;4993191;28;20042;-56
2021/01/20 09:12:56;;;;;;;1.73;0.50;;;;;;;;;;4993340;28;20052;-54
2021/01/20 09:15:22;;;;;;;4.10;0.60;;;;;;;;;;4993483;28;20125;-56
2021/01/20 09:17:48;;;;;;;1.27;0.50;;;;;;;;;;4994528;28;20090;-57
2021/01/20 09:20:14;;;;;;;0.98;0.47;;;;;;;;;;4994569;28;20045;-56
2021/01/20 09:22:40;;;;;;;3.88;0.60;;;;;;;;;;4993609;28;20034;-57
2021/01/20 09:25:06;;;;;;;3.80;1.10;;;;;;;;;;4994361;28;20115;-57
2021/01/20 09:27:32;;;;;;;1.08;0.40;;;;;;;;;;4993089;28;20038;-57
2021/01/20 09:29:57;;;;;;;1.65;0.40;;;;;;;;;;4978156;28;20050;-57
2021/01/20 09:32:23;;;;;;;1.17;0.40;;;;;;;;;;4993067;28;20503;-56
2021/01/20 09:34:50;;;;;;;3.15;0.70;;;;;;;;;;4993464;28;20081;-54
2021/01/20 09:37:16;;;;;;;1.67;0.57;;;;;;;;;;4993790;28;20042;-53
2021/01/20 09:39:42;;;;;;;2.13;0.60;;;;;;;;;;4993742;28;20042;-56
2021/01/20 09:42:07;;;;;;;2.50;0.70;;;;;;;;;;4992869;28;20045;-54
2021/01/20 09:44:33;;;;;;;1.75;0.50;;;;;;;;;;4993048;28;20384;-56
2021/01/20 09:47:01;;;;;;;1.77;0.60;;;;;;;;;;4993832;28;20045;-56
2021/01/20 09:49:26;;;;;;;1.55;0.50;;;;;;;;;;4992592;28;20042;-56
2021/01/20 09:51:52;;;;;;;1.02;0.40;;;;;;;;;;4991392;28;20053;-57
2021/01/20 09:54:18;;;;;;;2.22;0.70;;;;;;;;;;4976722;28;20352;-58
2021/01/20 09:56:44;;;;;;;3.08;0.70;;;;;;;;;;4994135;28;20056;-55
2021/01/20 09:59:10;;;;;;;2.90;0.80;;;;;;;;;;4993808;28;20482;-57
2021/01/20 10:01:36;;;;;;;3.72;0.80;;;;;;;;;;4991438;28;20034;-57
2021/01/20 10:04:02;;;;;;;4.68;0.60;;;;;;;;;;4992614;28;20054;-57
2021/01/20 10:06:28;;;;;;;0.93;0.40;;;;;;;;;;4992928;28;20085;-57
2021/01/20 10:08:53;;;;;;;2.05;0.70;;;;;;;;;;4993185;28;20042;-56
2021/01/20 10:11:19;;;;;;;2.03;0.60;;;;;;;;;;4990998;28;20030;-57
2021/01/20 10:13:45;;;;;;;3.70;0.60;;;;;;;;;;4993363;28;20041;-56
2021/01/20 10:16:11;;;;;;;2.53;0.75;;;;;;;;;;4993344;28;20845;-55
2021/01/20 10:18:37;;;;;;;2.75;0.80;;;;;;;;;;4993213;28;20042;-57
2021/01/20 10:21:03;;;;;;;2.95;0.50;;;;;;;;;;4991616;28;20100;-57
2021/01/20 10:23:29;;;;;;;3.08;0.60;;;;;;;;;;4991404;28;20140;-55
2021/01/20 10:25:54;;;;;;;2.75;0.68;;;;;;;;;;4992589;28;20050;-54
2021/01/20 10:28:20;;;;;;;4.93;0.88;;;;;;;;;;4992222;28;20802;-56
2021/01/20 10:30:46;;;;;;;2.63;0.70;;;;;;;;;;4991642;28;20439;-57
2021/01/20 10:33:12;;;;;;;0.93;0.43;;;;;;;;;;4992248;28;20041;-57
2021/01/20 10:35:40;;;;;;;2.50;0.70;;;;;;;;;;4993539;28;20057;-57
2021/01/20 10:38:05;;;;;;;1.92;0.60;;;;;;;;;;4993445;28;20446;-57
2021/01/20 10:40:31;;;;;;;3.33;0.70;;;;;;;;;;4992018;28;20050;-54
2021/01/20 10:42:57;;;;;;;3.17;0.60;;;;;;;;;;4990496;28;20050;-57
2021/01/20 10:45:23;;;;;;;1.95;0.60;;;;;;;;;;4990355;28;20086;-57
2021/01/20 10:47:49;;;;;;;2.58;0.70;;;;;;;;;;4976417;28;20545;-57
2021/01/20 10:50:15;;;;;;;2.35;0.60;;;;;;;;;;4991927;28;20062;-57
2021/01/20 10:52:41;;;;;;;4.05;0.65;;;;;;;;;;4991827;28;21006;-57
2021/01/20 10:55:07;;;;;;;2.67;0.60;;;;;;;;;;4992295;28;20045;-57
2021/01/20 10:57:33;;;;;;;2.30;0.70;;;;;;;;;;4990341;28;20042;-57
2021/01/20 10:59:59;;;;;;;2.55;0.70;;;;;;;;;;4990794;28;20050;-56
2021/01/20 11:02:25;;;;;;;3.00;0.70;;;;;;;;;;4974179;28;20029;-54
2021/01/20 11:04:51;;;;;;;2.40;0.60;;;;;;;;;;4991315;28;20061;-56
2021/01/20 11:07:17;;;;;;;6.47;3.13;;;;;;;;;;4991974;28;20124;-56
2021/01/20 11:09:43;;;;;;;2.88;0.93;;;;;;;;;;4989854;28;20038;-56
2021/01/20 11:12:09;;;;;;;5.15;0.77;;;;;;;;;;4992797;28;20155;-56
2021/01/20 11:14:35;;;;;;;3.13;0.70;;;;;;;;;;4991742;28;20041;-55
2021/01/20 11:17:01;;;;;;;2.25;0.60;;;;;;;;;;4992230;28;20041;-57
2021/01/20 11:19:27;;;;;;;4.20;0.63;;;;;;;;;;4990269;28;20435;-55
2021/01/20 11:21:53;;;;;;;3.00;0.85;;;;;;;;;;4993128;28;20061;-55
2021/01/20 11:24:19;;;;;;;2.88;0.70;;;;;;;;;;4990377;28;20041;-54
2021/01/20 11:26:46;;;;;;;2.35;0.65;;;;;;;;;;4990717;28;20044;-54
2021/01/20 11:29:12;;;;;;;2.13;0.68;;;;;;;;;;4990399;28;20784;-54
2021/01/20 11:31:38;;;;;;;2.47;0.80;;;;;;;;;;4991704;28;20137;-57
2021/01/20 11:34:04;;;;;;;2.35;0.68;;;;;;;;;;4992177;28;20041;-55
2021/01/20 11:36:30;;;;;;;1.95;0.68;;;;;;;;;;4992897;28;20391;-55
2021/01/20 11:38:56;;;;;;;2.72;0.70;;;;;;;;;;4993054;28;20090;-57
2021/01/20 11:41:21;;;;;;;2.70;0.77;;;;;;;;;;4990490;28;20145;-56
2021/01/20 11:43:48;;;;;;;3.33;0.60;;;;;;;;;;4992584;28;20041;-54
2021/01/20 11:46:14;;;;;;;4.20;0.80;;;;;;;;;;4989303;28;20046;-55
2021/01/20 11:48:40;;;;;;;3.33;0.95;;;;;;;;;;4989200;28;20055;-56
2021/01/20 11:51:06;;;;;;;2.63;0.90;;;;;;;;;;4992073;28;20065;-56
2021/01/20 11:53:32;;;;;;;2.63;0.65;;;;;;;;;;4991818;28;20105;-55
2021/01/20 11:55:58;;;;;;;3.95;0.90;;;;;;;;;;4992138;28;20121;-56
2021/01/20 11:58:24;;;;;;;3.85;0.80;;;;;;;;;;4991780;28;20041;-54
2021/01/20 12:00:49;;;;;;;5.95;1.20;;;;;;;;;;4976985;28;20073;-53
2021/01/20 12:03:15;;;;;;;3.47;1.00;;;;;;;;;;4983996;28;20046;-54
2021/01/20 12:05:42;;;;;;;4.15;0.80;;;;;;;;;;4989656;28;20050;-57
2021/01/20 12:08:07;;;;;;;4.38;0.73;;;;;;;;;;4993737;28;20053;-56
2021/01/20 12:10:33;;;;;;;6.03;1.02;;;;;;;;;;4990525;28;20045;-55
2021/01/20 12:12:59;;;;;;;2.75;0.70;;;;;;;;;;4994126;28;20045;-57
2021/01/20 12:15:25;;;;;;;2.00;0.70;;;;;;;;;;4994479;28;20124;-57
2021/01/20 12:17:51;;;;;;;2.53;0.82;;;;;;;;;;4995207;28;20033;-57
2021/01/20 12:20:17;;;;;;;3.35;1.00;;;;;;;;;;4995307;28;20454;-56
2021/01/20 12:22:55;;;;;;;3.35;0.90;;;;;;;;;;4996493;28;20038;-57
2021/01/20 12:25:28;;;;;;;6.88;0.85;;;;;;;;;;4996134;28;20779;-56
2021/01/20 12:27:54;;;;;;;4.53;0.95;;;;;;;;;;4989045;28;20391;-57
2021/01/20 12:30:20;;;;;;;4.13;0.73;;;;;;;;;;4993164;28;20037;-56
2021/01/20 12:32:49;;;;;;;4.63;1.00;;;;;;;;;;4995891;28;20052;-57
2021/01/20 12:35:43;;;;;;;;;;;;;;;;;;;;;
2021/01/20 12:38:15;;;;;;;4.78;1.00;;;;;;;;;;4963409;28;20116;-54
2021/01/20 12:40:40;;;;;;;3.05;0.77;;;;;;;;;;4962643;28;20720;-56
2021/01/20 12:43:06;;;;;;;2.45;0.80;;;;;;;;;;4995489;28;20053;-55
2021/01/20 12:45:32;;;;;;;3.40;0.88;;;;;;;;;;4994214;28;20046;-55
2021/01/20 12:47:58;;;;;;;5.32;1.17;;;;;;;;;;4995801;28;20076;-56
2021/01/20 12:50:24;;;;;;;5.43;1.15;;;;;;;;;;4994086;28;20046;-57
2021/01/20 12:52:50;;;;;;;2.67;0.90;;;;;;;;;;4994769;28;20045;-55
2021/01/20 12:55:16;;;;;;;5.43;1.33;;;;;;;;;;4994288;28;20810;-55
2021/01/20 12:57:42;;;;;;;3.35;1.05;;;;;;;;;;4993540;28;20049;-57
2021/01/20 13:00:08;;;;;;;5.97;1.05;;;;;;;;;;4992974;28;20062;-56
2021/01/20 13:02:33;;;;;;;6.15;1.20;;;;;;;;;;4994487;28;20141;-56
2021/01/20 13:04:59;;;;;;;7.43;1.10;;;;;;;;;;4994579;28;20065;-56
2021/01/20 13:07:25;;;;;;;3.88;1.00;;;;;;;;;;4993671;28;20045;-53
2021/01/20 13:09:57;;;;;;;3.60;1.00;;;;;;;;;;4996164;28;20042;-56
2021/01/20 13:12:23;;;;;;;5.22;1.70;;;;;;;;;;4993529;28;20050;-56
2021/01/20 13:14:48;;;;;;;3.63;1.42;;;;;;;;;;4994206;28;20081;-56
2021/01/20 13:17:14;;;;;;;4.10;1.88;;;;;;;;;;4994214;28;20482;-54
2021/01/20 13:19:41;;;;;;;5.07;1.65;;;;;;;;;;4992570;28;20742;-56
2021/01/20 13:22:06;;;;;;;6.55;1.70;;;;;;;;;;4991875;28;20441;-56
2021/01/20 13:24:32;;;;;;;6.55;2.13;;;;;;;;;;4993946;28;20046;-54
2021/01/20 13:26:58;;;;;;;10.82;2.20;;;;;;;;;;4994756;28;20105;-55
2021/01/20 13:29:24;;;;;;;10.93;2.40;;;;;;;;;;4992555;28;20502;-57
2021/01/20 13:31:50;;;;;;;8.02;2.13;;;;;;;;;;4994845;28;21402;-57
2021/01/20 13:34:16;;;;;;;7.05;2.00;;;;;;;;;;4990613;28;20483;-56
2021/01/20 13:36:42;;;;;;;4.65;2.00;;;;;;;;;;4993397;28;20049;-56
2021/01/20 13:39:08;;;;;;;5.68;1.83;;;;;;;;;;4992928;28;20677;-57
2021/01/20 13:41:33;;;;;;;5.38;1.60;;;;;;;;;;4991965;28;20360;-52
2021/01/20 13:43:59;;;;;;;8.65;2.20;;;;;;;;;;4993363;28;20045;-55
2021/01/20 13:46:25;;;;;;;5.97;2.00;;;;;;;;;;4992562;28;20093;-54
2021/01/20 13:48:51;;;;;;;6.03;1.65;;;;;;;;;;4991964;28;20053;-55
2021/01/20 13:51:17;;;;;;;5.53;1.80;;;;;;;;;;4992620;28;20038;-52
2021/01/20 13:53:43;;;;;;;6.13;2.08;;;;;;;;;;4992879;28;20049;-53
2021/01/20 13:56:09;;;;;;;4.70;1.70;;;;;;;;;;4992918;28;20038;-53
2021/01/20 13:58:35;;;;;;;4.97;1.95;;;;;;;;;;4992438;28;20447;-54
2021/01/20 14:01:01;;;;;;;6.43;1.58;;;;;;;;;;4986042;28;20121;-52
2021/01/20 14:03:28;;;;;;;5.75;1.80;;;;;;;;;;4991047;28;20083;-53
2021/01/20 14:05:54;;;;;;;4.38;1.63;;;;;;;;;;4977961;28;20491;-56
2021/01/20 14:08:20;;;;;;;6.32;1.50;;;;;;;;;;4993653;28;20052;-56
2021/01/20 14:10:45;;;;;;;3.70;1.30;;;;;;;;;;4992145;28;20419;-55
2021/01/20 14:13:11;;;;;;;4.47;1.30;;;;;;;;;;4992363;28;20105;-53
2021/01/20 14:15:37;;;;;;;5.00;1.73;;;;;;;;;;4978294;28;20100;-53
2021/01/20 14:18:04;;;;;;;5.38;1.52;;;;;;;;;;4991725;28;20472;-54
2021/01/20 14:20:30;;;;;;;4.95;1.65;;;;;;;;;;4992724;28;20042;-53
2021/01/20 14:22:56;;;;;;;4.15;1.58;;;;;;;;;;4994982;28;20499;-53
2021/01/20 14:25:22;;;;;;;4.95;1.42;;;;;;;;;;4996283;28;20058;-54
2021/01/20 14:27:48;;;;;;;4.72;2.03;;;;;;;;;;4996062;28;20120;-58
2021/01/20 14:30:14;;;;;;;5.78;1.50;;;;;;;;;;4993852;28;20751;-55
2021/01/20 14:32:40;;;;;;;5.40;1.50;;;;;;;;;;4994040;28;20042;-57
2021/01/20 14:35:07;;;;;;;4.53;1.38;;;;;;;;;;4993346;28;20077;-55
2021/01/20 14:37:33;;;;;;;5.95;1.70;;;;;;;;;;4990966;28;20053;-55
2021/01/20 14:39:59;;;;;;;3.85;1.60;;;;;;;;;;4992992;28;20088;-57
2021/01/20 14:42:25;;;;;;;6.53;1.50;;;;;;;;;;4992943;28;20111;-57
2021/01/20 14:44:51;;;;;;;7.22;2.13;;;;;;;;;;4994299;28;20050;-56